MMZO/ZLO METAR and TAF weather

Enter ICAO airport designator
Station Type Date Time Source
MMZO METAR 2020/09/23 17:41 UTC NOAA

MMZO 231741Z 21008KT 10SM FEW020 33/25 A2987 RMK SLP088 8/100


Station Type Date Time Source
MMZO Decoded METAR 2020/09/23 17:41 UTC NOAA

Manzanillo International , Mexico (MMZO) 19-09N 104-34W
Sep 23, 2020 - 01:41 PM EDT / 2020.09.23 1741 UTC
Wind: from the SSW (210 degrees) at 9 MPH (8 KT):0
Visibility: 10 mile(s):0
Sky conditions: mostly clear
Temperature: 91 F (33 C)
Heat index: 103.5 F (39.7 C):1
Dew Point: 77 F (25 C)
Relative Humidity: 62%
Pressure (altimeter): 29.87 in. Hg (1011 hPa)
ob: MMZO 231741Z 21008KT 10SM FEW020 33/25 A2987 RMK SLP088 8/100
cycle: 17

Station Type Date Time Source
MMZO TAF 2020/09/23 18:12 UTC NOAA

TAF MMZO 231705Z 2318/2418 22010KT P6SM SCT020 SCT120
TEMPO 2323/2403 6SM -TSRA BKN020CB
FM240600 00000KT P6SM SCT020
FM241200 04005KT P6SM SCT100

Example: see airport list